Time,TemperatureF,DewpointF,PressureIn,WindDirection,WindDirectionDegrees,WindSpeedMPH,WindSpeedGustMPH,Humidity,HourlyPrecipIn,Conditions,Clouds,dailyrainin,SoftwareType,DateUTC
2015-08-05 00:01:00,75.7,55.7,29.75,WNW,285,3.5,3.5,50,0.00,RA,FEW,0.00,WeatherDisplay:10.37,2015-08-05 04:01:00,
2015-08-05 00:06:00,75.8,55.8,29.75,WNW,285,4.6,4.6,50,0.00,RA,FEW,0.00,WeatherDisplay:10.37,2015-08-05 04:06:00,
2015-08-05 00:11:00,75.3,55.4,29.75,West,277,4.6,4.6,50,0.00,CLR,FEW,0.00,WeatherDisplay:10.37,2015-08-05 04:11:00,
2015-08-05 00:16:00,75.2,55.3,29.75,West,265,4.6,4.6,50,0.00,CLR,FEW,0.00,WeatherDisplay:10.37,2015-08-05 04:16:00,
2015-08-05 00:21:00,75.2,55.3,29.75,West,264,4.6,4.6,50,0.00,CLR,FEW,0.00,WeatherDisplay:10.37,2015-08-05 04:21:00,
2015-08-05 00:26:00,75.1,55.2,29.76,West,278,3.5,3.5,50,0.00,CLR,FEW,0.00,WeatherDisplay:10.37,2015-08-05 04:26:00,
2015-08-05 00:31:00,75.1,55.2,29.76,West,274,4.0,4.0,50,0.00,CLR,FEW,0.00,WeatherDisplay:10.37,2015-08-05 04:31:00,
2015-08-05 00:36:00,74.6,54.7,29.76,WNW,289,6.9,6.9,50,0.00,CLR,FEW,0.00,WeatherDisplay:10.37,2015-08-05 04:36:00,
2015-08-05 00:41:00,74.5,54.6,29.76,WSW,256,5.8,5.8,50,0.00,CLR,FEW,0.00,WeatherDisplay:10.37,2015-08-05 04:41:00,
2015-08-05 00:46:00,74.6,54.7,29.76,SW,223,3.5,3.5,50,0.00,CLR,FEW,0.00,WeatherDisplay:10.37,2015-08-05 04:46:00,
2015-08-05 00:51:00,74.5,54.6,29.76,WSW,256,0.0,0.0,50,0.00,CLR,FEW,0.00,WeatherDisplay:10.37,2015-08-05 04:51:00,
2015-08-05 00:56:00,74.3,54.5,29.76,WSW,256,0.0,0.0,50,0.00,CLR,FEW,0.00,WeatherDisplay:10.37,2015-08-05 04:56:00,
2015-08-05 01:01:00,74.0,54.2,29.76,WSW,256,0.0,0.0,50,0.00,CLR,FEW,0.00,WeatherDisplay:10.37,2015-08-05 05:01:00,
2015-08-05 01:06:00,73.9,54.1,29.76,WSW,256,0.0,0.0,50,0.00,CLR,FEW,0.00,WeatherDisplay:10.37,2015-08-05 05:06:00,
2015-08-05 01:11:00,73.7,53.9,29.76,WSW,256,0.0,0.0,50,0.00,CLR,FEW,0.00,WeatherDisplay:10.37,2015-08-05 05:11:00,
2015-08-05 01:16:00,73.3,53.5,29.76,WSW,256,0.0,0.0,50,0.00,CLR,FEW,0.00,WeatherDisplay:10.37,2015-08-05 05:16:00,
2015-08-05 01:21:00,73.3,53.5,29.76,WSW,256,0.0,0.0,50,0.00,CLR,FEW,0.00,WeatherDisplay:10.37,2015-08-05 05:21:00,
2015-08-05 01:26:00,72.8,53.1,29.76,WSW,256,0.0,0.0,50,0.00,CLR,FEW,0.00,WeatherDisplay:10.37,2015-08-05 05:26:00,
2015-08-05 01:31:00,72.6,52.9,29.76,WSW,256,0.0,0.0,50,0.00,CLR,FEW,0.00,WeatherDisplay:10.37,2015-08-05 05:31:00,
2015-08-05 01:36:00,72.3,52.6,29.76,WSW,256,0.0,0.0,50,0.00,CLR,FEW,0.00,WeatherDisplay:10.37,2015-08-05 05:36:00,
2015-08-05 01:41:00,72.2,52.5,29.75,WSW,256,0.0,0.0,50,0.00,CLR,FEW,0.00,WeatherDisplay:10.37,2015-08-05 05:41:00,
2015-08-05 01:46:00,72.5,52.8,29.76,WSW,256,0.0,0.0,50,0.00,CLR,FEW,0.00,WeatherDisplay:10.37,2015-08-05 05:46:00,
2015-08-05 01:51:00,72.3,52.6,29.76,WSW,256,0.0,0.0,50,0.00,CLR,FEW,0.00,WeatherDisplay:10.37,2015-08-05 05:51:00,
2015-08-05 01:56:00,72.3,52.6,29.76,WSW,256,0.0,0.0,50,0.00,CLR,FEW,0.00,WeatherDisplay:10.37,2015-08-05 05:56:00,
2015-08-05 02:01:00,72.2,52.5,29.75,WSW,256,0.0,0.0,50,0.00,CLR,FEW,0.00,WeatherDisplay:10.37,2015-08-05 06:01:00,
2015-08-05 02:06:00,71.7,52.1,29.75,WSW,256,0.0,0.0,50,0.00,CLR,FEW,0.00,WeatherDisplay:10.37,2015-08-05 06:06:00,
2015-08-05 02:11:00,71.5,51.9,29.75,WSW,256,0.0,0.0,50,0.00,CLR,FEW,0.00,WeatherDisplay:10.37,2015-08-05 06:11:00,
2015-08-05 02:16:00,71.5,51.9,29.75,WSW,256,0.0,0.0,50,0.00,CLR,FEW,0.00,WeatherDisplay:10.37,2015-08-05 06:16:00,
2015-08-05 02:21:00,71.3,51.7,29.75,WSW,256,0.0,0.0,50,0.00,CLR,FEW,0.00,WeatherDisplay:10.37,2015-08-05 06:21:00,
2015-08-05 02:26:00,70.9,51.3,29.75,WSW,256,0.0,0.0,50,0.00,CLR,FEW,0.00,WeatherDisplay:10.37,2015-08-05 06:26:00,
2015-08-05 02:31:00,71.3,51.7,29.75,WSW,256,0.0,0.0,50,0.00,CLR,FEW,0.00,WeatherDisplay:10.37,2015-08-05 06:31:00,
2015-08-05 02:36:00,71.2,51.6,29.75,NNE,32,1.4,1.4,50,0.00,CLR,FEW,0.00,WeatherDisplay:10.37,2015-08-05 06:36:00,
2015-08-05 02:41:00,71.1,51.5,29.75,North,7,3.5,3.5,50,0.00,CLR,FEW,0.00,WeatherDisplay:10.37,2015-08-05 06:41:00,
2015-08-05 02:46:00,71.3,51.7,29.75,NE,40,0.0,0.0,50,0.00,CLR,FEW,0.00,WeatherDisplay:10.37,2015-08-05 06:46:00,
2015-08-05 02:51:00,71.4,51.8,29.75,NE,40,0.0,0.0,50,0.00,CLR,FEW,0.00,WeatherDisplay:10.37,2015-08-05 06:51:00,
2015-08-05 02:56:00,71.4,51.8,29.75,NE,40,0.0,0.0,50,0.00,CLR,FEW,0.00,WeatherDisplay:10.37,2015-08-05 06:56:00,
2015-08-05 03:01:00,71.4,51.8,29.75,NE,40,0.0,0.0,50,0.00,CLR,FEW,0.00,WeatherDisplay:10.37,2015-08-05 07:01:00,
2015-08-05 03:06:00,71.2,51.6,29.75,NE,40,0.0,0.0,50,0.00,CLR,FEW,0.00,WeatherDisplay:10.37,2015-08-05 07:06:00,
2015-08-05 03:11:00,70.6,51.1,29.74,NE,40,0.0,0.0,50,0.00,CLR,FEW,0.00,WeatherDisplay:10.37,2015-08-05 07:11:00,
2015-08-05 03:16:00,70.4,50.9,29.74,NE,40,0.0,0.0,50,0.00,CLR,FEW,0.00,WeatherDisplay:10.37,2015-08-05 07:16:00,
2015-08-05 03:21:00,70.2,50.7,29.75,NE,40,0.0,0.0,50,0.00,CLR,FEW,0.00,WeatherDisplay:10.37,2015-08-05 07:21:00,
2015-08-05 03:26:00,69.9,50.4,29.74,NE,40,0.0,0.0,50,0.00,CLR,FEW,0.00,WeatherDisplay:10.37,2015-08-05 07:26:00,
2015-08-05 03:31:00,69.9,50.4,29.74,NE,40,0.0,0.0,50,0.00,CLR,FEW,0.00,WeatherDisplay:10.37,2015-08-05 07:31:00,
2015-08-05 03:36:00,69.7,50.2,29.74,NE,40,0.0,0.0,50,0.00,CLR,FEW,0.00,WeatherDisplay:10.37,2015-08-05 07:36:00,
2015-08-05 03:41:00,69.5,50.0,29.74,NE,40,0.0,0.0,50,0.00,CLR,FEW,0.00,WeatherDisplay:10.37,2015-08-05 07:41:00,
2015-08-05 03:46:00,69.4,49.9,29.74,NE,40,0.0,0.0,50,0.00,CLR,FEW,0.00,WeatherDisplay:10.37,2015-08-05 07:46:00,
2015-08-05 03:51:00,69.3,49.9,29.74,NE,40,0.0,0.0,50,0.00,CLR,FEW,0.00,WeatherDisplay:10.37,2015-08-05 07:51:00,
2015-08-05 03:56:00,69.2,49.8,29.74,NE,40,0.0,0.0,50,0.00,CLR,FEW,0.00,WeatherDisplay:10.37,2015-08-05 07:56:00,
2015-08-05 04:01:00,69.0,49.6,29.74,NE,40,0.0,0.0,50,0.00,CLR,FEW,0.00,WeatherDisplay:10.37,2015-08-05 08:01:00,
2015-08-05 04:06:00,69.0,49.6,29.74,NE,40,0.0,0.0,50,0.00,CLR,FEW,0.00,WeatherDisplay:10.37,2015-08-05 08:06:00,
2015-08-05 04:11:00,69.2,49.8,29.75,WSW,237,0.0,0.0,50,0.00,CLR,FEW,0.00,WeatherDisplay:10.37,2015-08-05 08:11:00,
2015-08-05 04:16:00,68.9,49.5,29.74,WSW,240,1.2,0.0,50,0.00,CLR,FEW,0.00,WeatherDisplay:10.37,2015-08-05 08:16:00,
2015-08-05 04:21:00,69.1,49.7,29.74,SW,227,2.3,2.3,50,0.00,CLR,FEW,0.00,WeatherDisplay:10.37,2015-08-05 08:21:00,
2015-08-05 04:26:00,69.3,49.9,29.74,WSW,239,0.0,0.0,50,0.00,CLR,FEW,0.00,WeatherDisplay:10.37,2015-08-05 08:26:00,
2015-08-05 04:31:00,69.0,49.6,29.74,WSW,239,0.0,0.0,50,0.00,CLR,FEW,0.00,WeatherDisplay:10.37,2015-08-05 08:31:00,
2015-08-05 04:36:00,69.1,49.7,29.74,WSW,239,0.0,0.0,50,0.00,CLR,FEW,0.00,WeatherDisplay:10.37,2015-08-05 08:36:00,
2015-08-05 04:41:00,69.2,49.8,29.74,WSW,251,1.1,1.5,50,0.00,CLR,FEW,0.00,WeatherDisplay:10.37,2015-08-05 08:41:00,
2015-08-05 04:46:00,69.2,49.8,29.73,West,270,3.5,3.5,50,0.00,CLR,FEW,0.00,WeatherDisplay:10.37,2015-08-05 08:46:00,
2015-08-05 04:51:00,69.1,49.7,29.73,West,270,3.5,3.5,50,0.00,CLR,FEW,0.00,WeatherDisplay:10.37,2015-08-05 08:51:00,
2015-08-05 04:56:00,69.2,49.8,29.73,West,268,4.6,4.6,50,0.00,CLR,FEW,0.00,WeatherDisplay:10.37,2015-08-05 08:56:00,
2015-08-05 05:01:00,68.5,49.1,29.73,WSW,257,3.5,3.5,50,0.00,CLR,FEW,0.00,WeatherDisplay:10.37,2015-08-05 09:01:00,
2015-08-05 05:06:00,68.9,49.5,29.74,West,271,3.5,3.5,50,0.00,CLR,FEW,0.00,WeatherDisplay:10.37,2015-08-05 09:06:00,
2015-08-05 05:11:00,68.6,49.2,29.73,West,270,2.3,2.3,50,0.00,CLR,FEW,0.00,WeatherDisplay:10.37,2015-08-05 09:11:00,
2015-08-05 05:16:00,68.5,49.1,29.73,West,270,3.5,3.5,50,0.00,CLR,FEW,0.00,WeatherDisplay:10.37,2015-08-05 09:16:00,
2015-08-05 05:21:00,68.7,49.3,29.73,WNW,291,3.5,3.5,50,0.00,CLR,FEW,0.00,WeatherDisplay:10.37,2015-08-05 09:21:00,
2015-08-05 05:26:00,68.4,49.0,29.74,West,263,2.3,2.3,50,0.00,CLR,FEW,0.00,WeatherDisplay:10.37,2015-08-05 09:26:00,
2015-08-05 05:31:00,68.4,49.0,29.74,West,277,3.5,3.5,50,0.00,CLR,FEW,0.00,WeatherDisplay:10.37,2015-08-05 09:31:00,
2015-08-05 05:36:00,68.2,48.8,29.74,WSW,248,2.3,2.3,50,0.00,CLR,FEW,0.00,WeatherDisplay:10.37,2015-08-05 09:36:00,
2015-08-05 05:42:00,68.5,49.1,29.74,WSW,248,0.0,0.0,50,0.00,CLR,FEW,0.00,WeatherDisplay:10.37,2015-08-05 09:42:00,
2015-08-05 05:47:00,68.3,48.9,29.74,WSW,248,0.0,0.0,50,0.00,CLR,FEW,0.00,WeatherDisplay:10.37,2015-08-05 09:47:00,
2015-08-05 05:52:00,68.2,48.8,29.74,WSW,248,0.0,0.0,50,0.00,CLR,FEW,0.00,WeatherDisplay:10.37,2015-08-05 09:52:00,
2015-08-05 05:57:00,68.2,48.8,29.74,WSW,248,0.0,0.0,50,0.00,CLR,FEW,0.00,WeatherDisplay:10.37,2015-08-05 09:57:00,
2015-08-05 06:02:00,68.3,48.9,29.74,WSW,248,0.0,0.0,50,0.00,CLR,FEW,0.00,WeatherDisplay:10.37,2015-08-05 10:02:00,
2015-08-05 06:07:00,68.2,48.8,29.74,WSW,248,0.0,0.0,50,0.00,CLR,FEW,0.00,WeatherDisplay:10.37,2015-08-05 10:07:00,
2015-08-05 06:12:00,67.9,48.6,29.75,WSW,248,0.0,0.0,50,0.00,CLR,FEW,0.00,WeatherDisplay:10.37,2015-08-05 10:12:00,